Terminal Aerodrome Forecast
Issued by NWS

Home | Current Version | Previous Version | Text Only | Print | Product List | Glossary On
Versions: 1 2 3 4 5 6 7 8 9 10 11 12
000
FTUS42 KTBW 222300
TAFRSW
TAF
KRSW 222331Z 2300/2324 15010KT P6SM VCTS SCT030CB BKN070 BKN250
      TEMPO 2300/2302 VRB15G25KT 4SM TSRA BKN030CB
     FM230200 VRB03KT P6SM FEW030 BKN250
     FM231500 04006KT P6SM FEW030 SCT250
     FM231800 01007KT P6SM VCTS SCT040CB BKN100 BKN250=

USA.gov is the U.S. government's official web portal to all federal, state and local government web resources and services.